Time;durP1;ratioP1;P1;durP2;ratioP2;P2;SDS_P1;SDS_P2;PMS_P1;PMS_P2;Temp;Humidity;BMP_temperature;BMP_pressure;BME280_temperature;BME280_humidity;BME280_pressure;Samples;Min_cycle;Max_cycle;Signal;HPM_P1;HPM_P2
2022/10/27 00:01:50;;;;;;;51.63;26.98;;;9.90;99.90;;;;;;5018407;28;20109;-80
2022/10/27 00:04:16;;;;;;;51.78;27.63;;;9.90;99.90;;;;;;5000701;28;20034;-79
2022/10/27 00:06:42;;;;;;;61.78;27.85;;;9.80;99.90;;;;;;5018839;28;20041;-79
2022/10/27 00:09:07;;;;;;;50.38;26.42;;;9.80;99.90;;;;;;5002721;28;20029;-79
2022/10/27 00:11:33;;;;;;;49.08;24.52;;;9.80;99.90;;;;;;5002972;28;20030;-79
2022/10/27 00:13:59;;;;;;;45.30;25.45;;;9.80;99.90;;;;;;5021684;28;20030;-79
2022/10/27 00:16:24;;;;;;;46.90;25.83;;;9.70;99.90;;;;;;5002290;28;20030;-79
2022/10/27 00:18:50;;;;;;;47.83;26.33;;;9.70;99.90;;;;;;5001223;28;20025;-79
2022/10/27 00:21:19;;;;;;;49.42;25.48;;;9.70;99.90;;;;;;5018842;28;20030;-79
2022/10/27 00:23:48;;;;;;;46.05;26.33;;;9.60;99.90;;;;;;5019553;28;20022;-79
2022/10/27 00:26:16;;;;;;;41.95;21.52;;;9.60;99.90;;;;;;5001926;28;20478;-78
2022/10/27 00:28:42;;;;;;;40.75;25.13;;;9.60;99.90;;;;;;5018962;28;20014;-78
2022/10/27 00:31:20;;;;;;;48.88;25.80;;;9.50;99.90;;;;;;5001372;28;20056;-79
2022/10/27 00:33:48;;;;;;;55.58;26.65;;;9.50;99.90;;;;;;5019558;28;20389;-78
2022/10/27 00:36:23;;;;;;;47.50;26.05;;;9.50;99.90;;;;;;5001555;28;20030;-79
2022/10/27 00:38:53;;;;;;;45.95;26.77;;;9.50;99.90;;;;;;5018932;28;20026;-79
2022/10/27 00:41:32;;;;;;;49.88;25.05;;;9.40;99.90;;;;;;5019199;28;20026;-79
2022/10/27 00:43:59;;;;;;;47.78;24.50;;;9.40;99.90;;;;;;5001133;28;20073;-78
2022/10/27 00:46:43;;;;;;;46.05;24.77;;;9.40;99.90;;;;;;5002402;28;20034;-78
2022/10/27 00:49:12;;;;;;;43.17;23.85;;;9.40;99.90;;;;;;5002387;28;20022;-78
2022/10/27 00:51:47;;;;;;;47.90;23.05;;;9.40;99.90;;;;;;5023211;28;20030;-79
2022/10/27 00:54:14;;;;;;;43.88;20.63;;;9.40;99.90;;;;;;5024118;28;20037;-78
2022/10/27 00:56:41;;;;;;;40.75;22.80;;;9.40;99.90;;;;;;5023822;28;20018;-78
2022/10/27 00:59:07;;;;;;;67.28;22.88;;;9.40;99.90;;;;;;5007003;28;20030;-78
2022/10/27 01:01:35;;;;;;;44.83;22.20;;;9.40;99.90;;;;;;5023883;28;20063;-79
2022/10/27 01:04:01;;;;;;;42.75;20.33;;;9.40;99.90;;;;;;5006633;28;20544;-78
2022/10/27 01:06:27;;;;;;;40.63;21.73;;;9.40;99.90;;;;;;5023905;28;20473;-78
2022/10/27 01:08:53;;;;;;;39.20;20.60;;;9.30;99.90;;;;;;5007608;28;20076;-78
2022/10/27 01:11:19;;;;;;;33.50;19.55;;;9.30;99.90;;;;;;5023929;28;20087;-78
2022/10/27 01:13:44;;;;;;;29.83;16.92;;;9.30;99.90;;;;;;5007238;28;20026;-78
2022/10/27 01:16:25;;;;;;;38.17;19.95;;;9.30;99.90;;;;;;5024732;28;20420;-79
2022/10/27 01:19:28;;;;;;;37.67;20.13;;;9.30;99.90;;;;;;5006804;28;20462;-79
2022/10/27 01:22:15;;;;;;;35.50;19.42;;;9.30;99.90;;;;;;5007321;28;20033;-78
2022/10/27 01:24:42;;;;;;;37.05;18.73;;;9.40;99.90;;;;;;5005894;28;20478;-78
2022/10/27 01:27:42;;;;;;;29.25;16.40;;;9.40;99.90;;;;;;5023974;28;20037;-79
2022/10/27 01:30:16;;;;;;;30.40;12.75;;;9.30;99.90;;;;;;5006270;28;20093;-79
2022/10/27 01:33:06;;;;;;;21.63;11.00;;;9.40;99.90;;;;;;5023429;28;20034;-78
2022/10/27 01:35:57;;;;;;;27.25;14.65;;;9.50;99.90;;;;;;5024607;28;20054;-78
2022/10/27 01:38:33;;;;;;;24.48;12.45;;;9.60;99.90;;;;;;5006994;28;20053;-79
2022/10/27 01:41:22;;;;;;;20.38;11.38;;;9.60;99.90;;;;;;5022222;28;20038;-79
2022/10/27 01:43:51;;;;;;;22.05;10.93;;;9.60;99.90;;;;;;5023279;28;20042;-78
2022/10/27 01:46:18;;;;;;;21.15;10.93;;;9.60;99.90;;;;;;5005012;28;20042;-78
2022/10/27 01:48:45;;;;;;;17.00;8.40;;;9.60;99.90;;;;;;5020578;28;20053;-79
2022/10/27 01:51:11;;;;;;;16.25;7.50;;;9.70;99.90;;;;;;5020677;28;20563;-78
2022/10/27 01:53:43;;;;;;;20.40;8.52;;;9.80;99.90;;;;;;5021624;28;20030;-79
2022/10/27 01:56:34;;;;;;;20.30;8.60;;;9.90;99.90;;;;;;5002902;28;20032;-79
2022/10/27 01:59:08;;;;;;;14.88;7.28;;;9.90;99.90;;;;;;4982998;28;20434;-79
2022/10/27 02:02:09;;;;;;;12.32;6.93;;;10.00;99.90;;;;;;5002659;28;20088;-79
2022/10/27 02:05:04;;;;;;;16.10;7.82;;;10.00;99.90;;;;;;4984862;28;20421;-79
2022/10/27 02:07:56;;;;;;;19.35;7.65;;;10.10;99.90;;;;;;5019000;28;20026;-79
2022/10/27 02:10:31;;;;;;;18.08;7.75;;;10.10;99.90;;;;;;5012496;28;20034;-79
2022/10/27 02:12:57;;;;;;;16.98;7.45;;;10.00;99.90;;;;;;5001843;28;20029;-79
2022/10/27 02:15:27;;;;;;;13.57;7.38;;;10.10;99.90;;;;;;5001878;28;20476;-78
2022/10/27 02:17:59;;;;;;;13.85;7.03;;;10.10;99.90;;;;;;5018766;28;20037;-79
2022/10/27 02:20:32;;;;;;;13.43;6.78;;;10.20;99.90;;;;;;5001830;28;20036;-80
2022/10/27 02:23:03;;;;;;;13.45;7.25;;;10.30;99.90;;;;;;5002342;28;20034;-79
2022/10/27 02:25:35;;;;;;;18.55;7.47;;;10.30;99.90;;;;;;5018346;28;20048;-79
2022/10/27 02:28:06;;;;;;;17.08;7.30;;;10.30;99.90;;;;;;5002094;28;20053;-79
2022/10/27 02:30:33;;;;;;;12.27;7.35;;;10.30;99.90;;;;;;5018718;28;20490;-79
2022/10/27 02:32:59;;;;;;;13.77;7.85;;;10.30;99.90;;;;;;5019014;28;20030;-79
2022/10/27 02:35:25;;;;;;;17.10;7.68;;;10.30;99.90;;;;;;5018502;28;20438;-79
2022/10/27 02:37:51;;;;;;;14.68;7.05;;;10.30;99.90;;;;;;5019102;28;20018;-79
2022/10/27 02:40:16;;;;;;;16.67;8.35;;;10.30;99.90;;;;;;5018786;28;20382;-79
2022/10/27 02:42:42;;;;;;;20.42;7.82;;;10.30;99.90;;;;;;5002089;28;20030;-80
2022/10/27 02:45:08;;;;;;;13.70;7.82;;;10.40;99.90;;;;;;5018642;28;20026;-79
2022/10/27 02:47:34;;;;;;;14.90;7.25;;;10.40;99.90;;;;;;5000918;28;20053;-79
2022/10/27 02:49:59;;;;;;;19.20;7.25;;;10.30;99.90;;;;;;5002386;28;20057;-79
2022/10/27 02:52:25;;;;;;;14.90;6.85;;;10.40;99.90;;;;;;5001470;28;20037;-79
2022/10/27 02:54:51;;;;;;;11.35;6.40;;;10.40;99.90;;;;;;5000883;28;20029;-79
2022/10/27 02:57:17;;;;;;;18.98;7.53;;;10.40;99.90;;;;;;5017399;28;20118;-79
2022/10/27 02:59:44;;;;;;;11.25;6.95;;;10.40;99.90;;;;;;5018287;28;20454;-79
2022/10/27 03:02:09;;;;;;;17.25;6.57;;;10.40;99.90;;;;;;5000065;28;20034;-79
2022/10/27 03:04:35;;;;;;;17.25;7.53;;;10.40;99.90;;;;;;5017167;28;20363;-79
2022/10/27 03:07:01;;;;;;;13.80;6.65;;;10.40;99.90;;;;;;5017195;28;20485;-80
2022/10/27 03:09:27;;;;;;;14.18;7.05;;;10.40;99.90;;;;;;4999209;28;20029;-79
2022/10/27 03:11:52;;;;;;;14.88;6.70;;;10.40;99.90;;;;;;5016510;28;20026;-79
2022/10/27 03:14:18;;;;;;;15.35;6.45;;;10.40;99.90;;;;;;5015227;28;20061;-80
2022/10/27 03:16:44;;;;;;;13.07;7.38;;;10.40;99.90;;;;;;5015820;28;20022;-80
2022/10/27 03:19:09;;;;;;;16.42;7.00;;;10.40;99.90;;;;;;4998944;28;20052;-79
2022/10/27 03:21:35;;;;;;;14.20;7.10;;;10.40;99.90;;;;;;4999343;28;20025;-79
2022/10/27 03:24:01;;;;;;;14.68;7.03;;;10.40;99.90;;;;;;5017351;28;20028;-79
2022/10/27 03:26:26;;;;;;;11.93;6.38;;;10.40;99.90;;;;;;5016535;28;20034;-79
2022/10/27 03:28:52;;;;;;;16.70;6.50;;;10.40;99.90;;;;;;4998707;28;20037;-79
2022/10/27 03:31:18;;;;;;;14.45;7.18;;;10.30;99.90;;;;;;5017382;28;20033;-79
2022/10/27 03:33:43;;;;;;;15.10;6.75;;;10.30;99.90;;;;;;5017623;28;20034;-79
2022/10/27 03:36:10;;;;;;;14.88;6.95;;;10.40;99.90;;;;;;5018079;28;20022;-80
2022/10/27 03:38:36;;;;;;;14.40;6.75;;;10.40;99.90;;;;;;5001613;28;20030;-79
2022/10/27 03:41:02;;;;;;;16.88;7.10;;;10.40;99.90;;;;;;5000739;28;20029;-80
2022/10/27 03:43:28;;;;;;;16.27;7.32;;;10.40;99.90;;;;;;5000874;28;20544;-80
2022/10/27 03:45:54;;;;;;;14.85;6.38;;;10.30;99.90;;;;;;5000824;28;20030;-79
2022/10/27 03:48:19;;;;;;;19.63;6.88;;;10.40;99.90;;;;;;5017672;28;20029;-79
2022/10/27 03:50:47;;;;;;;19.55;6.97;;;10.30;99.90;;;;;;5000683;28;20153;-79
2022/10/27 03:53:14;;;;;;;18.08;6.68;;;10.30;99.90;;;;;;5017201;28;20038;-79
2022/10/27 03:55:40;;;;;;;14.50;6.25;;;10.30;99.90;;;;;;4999290;28;20121;-79
2022/10/27 03:58:10;;;;;;;14.40;7.18;;;10.20;99.90;;;;;;5016804;28;20435;-80
2022/10/27 04:00:35;;;;;;;8.13;6.05;;;10.20;99.90;;;;;;4999067;28;20037;-80
2022/10/27 04:03:01;;;;;;;14.30;6.30;;;10.20;99.90;;;;;;5016699;28;20038;-84
2022/10/27 04:05:27;;;;;;;10.55;6.82;;;10.20;99.90;;;;;;5016721;28;20022;-80
2022/10/27 04:07:52;;;;;;;15.38;6.88;;;10.10;99.90;;;;;;5015990;28;20076;-79
2022/10/27 04:10:18;;;;;;;16.92;6.57;;;10.10;99.90;;;;;;5017620;28;20049;-78
2022/10/27 04:12:48;;;;;;;12.60;6.50;;;10.10;99.90;;;;;;5018010;28;20057;-77
2022/10/27 04:15:14;;;;;;;15.63;6.18;;;10.00;99.90;;;;;;5016908;28;20389;-81
2022/10/27 04:17:39;;;;;;;16.90;6.95;;;10.00;99.90;;;;;;5018363;28;20022;-80
2022/10/27 04:22:41;;;;;;;15.43;7.13;;;9.40;99.90;;;;;;5056029;23;20084;-81
2022/10/27 04:25:07;;;;;;;11.27;7.15;;;10.00;99.90;;;;;;5045286;28;20470;-81
2022/10/27 04:27:32;;;;;;;14.13;6.97;;;10.00;99.90;;;;;;5049410;28;20028;-83
2022/10/27 04:29:58;;;;;;;13.13;7.15;;;10.00;99.90;;;;;;5053973;28;20033;-82
2022/10/27 04:32:24;;;;;;;16.30;7.03;;;10.00;99.90;;;;;;5024354;28;20060;-80
2022/10/27 04:34:49;;;;;;;12.20;6.72;;;10.00;99.90;;;;;;5020344;28;20030;-81
2022/10/27 04:37:15;;;;;;;17.08;6.93;;;10.00;99.90;;;;;;5041629;28;20025;-81
2022/10/27 04:39:40;;;;;;;14.90;8.13;;;10.00;99.90;;;;;;5039422;28;20049;-78
2022/10/27 04:42:06;;;;;;;15.85;6.80;;;9.90;99.90;;;;;;5020342;28;20045;-80
2022/10/27 04:44:32;;;;;;;19.23;6.68;;;9.90;99.90;;;;;;5021479;28;20033;-77
2022/10/27 04:46:57;;;;;;;18.60;7.70;;;9.90;99.90;;;;;;5019547;28;20029;-81
2022/10/27 04:49:23;;;;;;;14.10;7.00;;;9.90;99.90;;;;;;5046605;28;20461;-79
2022/10/27 04:51:49;;;;;;;17.73;7.20;;;10.00;99.90;;;;;;5026616;28;20034;-78
2022/10/27 04:54:14;;;;;;;16.60;7.63;;;10.00;99.90;;;;;;5039457;28;20156;-78
2022/10/27 04:56:40;;;;;;;15.45;7.25;;;10.00;99.90;;;;;;5040875;28;20168;-79
2022/10/27 04:59:05;;;;;;;11.93;6.90;;;9.90;99.90;;;;;;5042462;28;20025;-77
2022/10/27 05:01:31;;;;;;;18.83;7.68;;;9.90;99.90;;;;;;5040528;28;20066;-76
2022/10/27 05:03:57;;;;;;;13.60;7.88;;;9.90;99.90;;;;;;5041401;28;20034;-82
2022/10/27 05:06:22;;;;;;;15.98;8.32;;;9.90;99.90;;;;;;5419446;23;20160;-83
2022/10/27 05:08:48;;;;;;;21.60;8.02;;;9.90;99.90;;;;;;5034668;28;20058;-81
2022/10/27 05:11:13;;;;;;;14.45;7.75;;;9.90;99.90;;;;;;5044953;28;20462;-81
2022/10/27 05:13:39;;;;;;;13.77;7.95;;;9.80;99.90;;;;;;5040964;28;20063;-81
2022/10/27 05:16:05;;;;;;;14.57;9.23;;;9.80;99.90;;;;;;5021309;28;20066;-79
2022/10/27 05:18:31;;;;;;;16.42;8.18;;;9.80;99.90;;;;;;5023503;28;20025;-81
2022/10/27 05:20:57;;;;;;;19.83;8.57;;;9.80;99.90;;;;;;5034619;28;20040;-82
2022/10/27 05:23:23;;;;;;;19.88;9.13;;;9.70;99.90;;;;;;5224988;23;1179937;-82
2022/10/27 05:25:52;;;;;;;15.98;9.07;;;9.70;99.90;;;;;;5042966;28;20030;-77
2022/10/27 05:28:19;;;;;;;19.38;8.63;;;9.70;99.90;;;;;;5024016;28;20037;-80
2022/10/27 05:30:44;;;;;;;16.50;8.90;;;9.70;99.90;;;;;;5040381;28;20037;-78
2022/10/27 05:33:10;;;;;;;15.30;8.52;;;9.70;99.90;;;;;;5019851;28;20030;-77
2022/10/27 05:35:36;;;;;;;18.23;8.32;;;9.70;99.90;;;;;;5020362;28;20484;-77
2022/10/27 05:38:01;;;;;;;20.63;8.15;;;9.70;99.90;;;;;;5020532;28;20025;-77
2022/10/27 05:40:33;;;;;;;16.52;7.47;;;9.60;99.90;;;;;;5042048;28;20051;-77
2022/10/27 05:43:00;;;;;;;22.25;8.43;;;9.60;99.90;;;;;;5041272;28;20018;-77
2022/10/27 05:45:26;;;;;;;20.27;7.40;;;9.60;99.90;;;;;;5041169;28;20107;-79
2022/10/27 05:47:59;;;;;;;14.90;7.68;;;9.60;99.90;;;;;;5027166;28;20033;-82
2022/10/27 05:50:26;;;;;;;23.50;8.18;;;9.60;99.90;;;;;;5045805;28;20376;-83
2022/10/27 05:52:52;;;;;;;18.73;8.18;;;9.60;99.90;;;;;;5046978;28;20354;-81
2022/10/27 05:55:18;;;;;;;18.52;8.32;;;9.60;99.90;;;;;;5047932;28;20044;-80
2022/10/27 05:58:02;;;;;;;19.77;8.52;;;9.50;99.90;;;;;;5026981;28;20026;-80
2022/10/27 06:00:31;;;;;;;20.52;10.18;;;9.60;99.90;;;;;;5024225;28;20061;-78
2022/10/27 06:02:58;;;;;;;26.88;10.05;;;9.60;99.90;;;;;;5042687;28;20030;-80
2022/10/27 06:05:25;;;;;;;21.60;11.55;;;9.50;99.90;;;;;;5024793;28;20036;-81
2022/10/27 06:07:51;;;;;;;21.30;11.32;;;9.50;99.90;;;;;;5041431;28;20099;-79
2022/10/27 06:10:16;;;;;;;20.42;11.68;;;9.50;99.90;;;;;;5023316;28;20021;-80
2022/10/27 06:12:42;;;;;;;27.45;10.52;;;9.60;99.90;;;;;;5041089;28;20358;-78
2022/10/27 06:15:08;;;;;;;13.45;8.75;;;9.60;99.90;;;;;;5039175;28;20029;-76
2022/10/27 06:17:34;;;;;;;16.15;11.00;;;9.60;99.90;;;;;;5019161;28;20083;-59
2022/10/27 06:20:00;;;;;;;17.27;10.43;;;9.60;99.90;;;;;;5035636;28;20025;-58
2022/10/27 06:22:25;;;;;;;22.67;10.30;;;9.70;99.90;;;;;;5035582;28;20029;-58
2022/10/27 06:24:51;;;;;;;17.80;10.30;;;9.70;99.90;;;;;;5035356;28;20053;-58
2022/10/27 06:27:17;;;;;;;22.88;10.30;;;9.70;99.90;;;;;;5035678;28;20037;-59
2022/10/27 06:29:42;;;;;;;17.00;9.35;;;9.80;99.90;;;;;;5035439;28;20026;-58
2022/10/27 06:32:08;;;;;;;21.23;10.20;;;9.90;99.90;;;;;;5035602;28;20068;-59
2022/10/27 06:34:33;;;;;;;24.05;10.02;;;9.90;99.90;;;;;;5035244;28;20022;-59
2022/10/27 06:37:02;;;;;;;21.30;9.25;;;10.00;99.90;;;;;;5035584;28;20037;-58
2022/10/27 06:39:28;;;;;;;20.53;9.93;;;10.10;99.90;;;;;;5017812;28;20030;-59
2022/10/27 06:41:55;;;;;;;20.92;9.70;;;10.30;99.90;;;;;;5035484;28;20021;-59
2022/10/27 06:44:20;;;;;;;19.88;10.05;;;10.50;99.90;;;;;;5035104;28;20366;-58
2022/10/27 06:46:46;;;;;;;18.77;9.10;;;10.60;99.90;;;;;;5035396;28;20080;-58
2022/10/27 06:49:12;;;;;;;21.13;9.70;;;10.70;99.90;;;;;;5035260;28;20030;-77
2022/10/27 06:51:37;;;;;;;17.17;8.13;;;10.90;99.90;;;;;;5036994;28;20037;-78
2022/10/27 06:54:03;;;;;;;16.15;7.82;;;11.00;99.90;;;;;;5017417;28;20144;-77
2022/10/27 06:56:29;;;;;;;12.32;6.85;;;11.20;99.90;;;;;;5035065;28;20028;-78
2022/10/27 06:58:54;;;;;;;13.23;6.30;;;11.40;99.90;;;;;;5035383;28;20029;-78
2022/10/27 07:01:20;;;;;;;10.63;6.10;;;11.60;99.90;;;;;;5017539;28;20040;-78
2022/10/27 07:03:46;;;;;;;11.20;4.97;;;11.70;99.90;;;;;;5034779;28;20037;-77
2022/10/27 07:06:12;;;;;;;8.85;4.35;;;11.90;99.90;;;;;;5035046;28;20029;-79
2022/10/27 07:08:43;;;;;;;9.52;4.40;;;12.20;99.90;;;;;;5017344;28;20033;-78
2022/10/27 07:11:08;;;;;;;12.40;3.90;;;12.60;99.90;;;;;;5017392;28;20105;-79
2022/10/27 07:13:35;;;;;;;10.52;4.63;;;12.90;99.90;;;;;;5035215;28;20073;-78
2022/10/27 07:16:00;;;;;;;7.65;3.92;;;13.10;99.90;;;;;;5017010;28;20058;-78
2022/10/27 07:18:26;;;;;;;6.85;3.75;;;13.40;99.90;;;;;;5034311;28;20059;-79
2022/10/27 07:20:52;;;;;;;10.10;3.60;;;13.70;99.90;;;;;;5023202;28;20029;-81
2022/10/27 07:23:19;;;;;;;8.25;3.33;;;14.00;99.90;;;;;;5015247;28;20096;-81
2022/10/27 07:25:49;;;;;;;10.25;3.13;;;14.30;99.90;;;;;;5021393;28;20080;-81
2022/10/27 07:28:16;;;;;;;10.60;3.88;;;14.60;99.90;;;;;;5017230;28;20075;-80
2022/10/27 07:30:43;;;;;;;6.00;2.90;;;14.90;99.90;;;;;;5034706;28;20030;-80
2022/10/27 07:33:09;;;;;;;6.80;2.88;;;15.20;99.90;;;;;;5034819;28;20129;-80
2022/10/27 07:35:35;;;;;;;5.97;2.83;;;15.40;99.90;;;;;;5034748;28;20453;-80
2022/10/27 07:38:01;;;;;;;9.30;2.83;;;15.50;99.90;;;;;;5034799;28;20029;-80
2022/10/27 07:40:33;;;;;;;12.57;3.05;;;15.60;99.90;;;;;;5034576;28;20025;-78
2022/10/27 07:43:00;;;;;;;9.80;2.65;;;15.90;99.90;;;;;;5017167;28;20068;-80
2022/10/27 07:45:27;;;;;;;10.63;2.72;;;16.10;99.90;;;;;;5034579;28;20032;-80
2022/10/27 07:47:55;;;;;;;6.38;3.05;;;16.40;99.90;;;;;;5016831;28;20025;-79
2022/10/27 07:50:23;;;;;;;9.35;3.30;;;16.40;99.90;;;;;;5036599;28;20030;-80
2022/10/27 07:52:51;;;;;;;8.77;2.67;;;16.60;99.90;;;;;;5036936;28;20083;-80
2022/10/27 07:55:20;;;;;;;8.82;2.63;;;16.70;99.90;;;;;;5037309;28;20025;-79
2022/10/27 07:57:46;;;;;;;9.70;2.45;;;17.10;99.90;;;;;;5020064;28;20026;-80
2022/10/27 08:00:16;;;;;;;9.77;3.13;;;17.30;99.90;;;;;;5037106;28;20052;-80
2022/10/27 08:02:43;;;;;;;8.73;2.70;;;17.60;99.90;;;;;;5037316;28;20034;-80
2022/10/27 08:05:09;;;;;;;3.72;2.15;;;17.80;99.90;;;;;;5036428;28;20026;-80
2022/10/27 08:07:36;;;;;;;7.30;2.70;;;18.00;99.90;;;;;;5016838;28;20112;-79
2022/10/27 08:10:02;;;;;;;8.18;1.90;;;18.40;99.90;;;;;;5035188;28;20415;-79
2022/10/27 08:12:28;;;;;;;11.13;2.20;;;18.80;99.90;;;;;;5016452;28;20039;-79
2022/10/27 08:14:54;;;;;;;4.45;2.17;;;19.10;99.90;;;;;;5016388;28;20021;-79
2022/10/27 08:17:19;;;;;;;6.07;3.13;;;19.30;99.90;;;;;;5034094;28;20156;-79
2022/10/27 08:19:45;;;;;;;7.25;3.00;;;19.30;99.90;;;;;;5033919;28;20362;-79
2022/10/27 08:22:11;;;;;;;6.75;2.55;;;19.20;99.90;;;;;;5016468;28;20036;-79
2022/10/27 08:24:36;;;;;;;4.03;2.53;;;19.30;99.90;;;;;;5015973;28;20065;-79
2022/10/27 08:27:02;;;;;;;7.65;2.50;;;19.60;99.90;;;;;;5033580;28;20028;-79
2022/10/27 08:29:28;;;;;;;8.35;2.70;;;19.70;99.90;;;;;;5015912;28;20026;-79
2022/10/27 08:31:53;;;;;;;6.97;2.15;;;20.20;99.90;;;;;;5016139;28;20040;-79
2022/10/27 08:34:19;;;;;;;7.43;2.33;;;20.60;99.90;;;;;;5033819;28;20030;-79
2022/10/27 08:36:44;;;;;;;7.43;2.10;;;20.90;99.90;;;;;;5016459;28;20030;-79
2022/10/27 08:39:11;;;;;;;7.65;2.40;;;21.40;99.90;;;;;;5033609;28;20025;-79
2022/10/27 08:41:50;;;;;;;7.25;2.40;;;21.90;99.90;;;;;;5016444;28;20034;-79
2022/10/27 08:44:28;;;;;;;;;;;22.10;99.90;;;;;;5034149;28;20025;-78
2022/10/27 08:47:02;;;;;;;8.88;2.10;;;22.10;99.90;;;;;;5016125;28;20347;-79
2022/10/27 08:50:08;;;;;;;4.65;2.13;;;22.20;99.90;;;;;;5016159;28;20025;-79
2022/10/27 08:52:41;;;;;;;8.57;2.75;;;22.20;99.90;;;;;;4934317;29;20078;-79
2022/10/27 08:55:12;;;;;;;4.82;2.58;;;22.20;99.90;;;;;;5020944;28;20040;-79
2022/10/27 08:57:45;;;;;;;7.78;2.55;;;22.40;99.90;;;;;;5015651;28;20030;-79
2022/10/27 09:00:12;;;;;;;4.40;1.92;;;22.60;99.90;;;;;;5033654;28;20048;-79
2022/10/27 09:03:23;;;;;;;8.35;2.60;;;22.50;99.90;;;;;;5033459;28;20473;-79
2022/10/27 09:06:18;;;;;;;5.85;2.13;;;22.30;99.90;;;;;;5033567;28;20028;-78
2022/10/27 09:09:00;;;;;;;7.97;2.42;;;22.50;99.90;;;;;;5015721;28;20029;-79
2022/10/27 09:11:25;;;;;;;7.90;3.03;;;23.00;99.90;;;;;;5016523;28;20041;-79
2022/10/27 09:14:12;;;;;;;7.07;3.40;;;23.30;99.60;;;;;;5019358;28;20504;-78
2022/10/27 09:16:45;;;;;;;12.88;4.80;;;23.40;98.70;;;;;;5037064;28;20021;-78
2022/10/27 09:19:20;;;;;;;8.13;5.65;;;23.40;98.40;;;;;;5036767;28;20021;-78
2022/10/27 09:21:45;;;;;;;10.35;5.63;;;23.30;98.10;;;;;;5036715;28;20053;-78
2022/10/27 09:24:15;;;;;;;9.95;5.90;;;23.50;97.90;;;;;;5019106;28;20139;-79
2022/10/27 09:26:44;;;;;;;15.20;5.40;;;23.70;97.30;;;;;;5037299;28;20438;-79
2022/10/27 09:29:21;;;;;;;8.40;4.97;;;23.90;97.40;;;;;;5036835;28;20018;-79
2022/10/27 09:31:54;;;;;;;19.80;6.45;;;24.20;96.30;;;;;;5019451;28;20041;-79
2022/10/27 09:34:25;;;;;;;14.48;5.53;;;24.30;95.80;;;;;;5036991;28;20119;-79
2022/10/27 09:36:52;;;;;;;11.48;5.95;;;24.50;95.20;;;;;;5036334;28;20036;-79
2022/10/27 09:39:19;;;;;;;13.18;5.88;;;24.80;94.00;;;;;;5018978;28;20048;-79
2022/10/27 09:41:45;;;;;;;14.73;7.05;;;25.00;93.50;;;;;;5019124;28;20112;-79
2022/10/27 09:44:20;;;;;;;11.35;5.82;;;25.30;93.20;;;;;;5036237;28;20477;-79
2022/10/27 09:46:51;;;;;;;17.85;6.00;;;25.60;90.90;;;;;;5036525;28;20053;-79
2022/10/27 09:49:18;;;;;;;15.35;6.72;;;25.80;90.80;;;;;;5018902;28;20457;-78
2022/10/27 09:52:11;;;;;;;9.73;4.20;;;25.90;90.20;;;;;;5018561;28;20129;-79
2022/10/27 09:54:41;;;;;;;14.18;5.43;;;26.10;87.40;;;;;;5018927;28;20057;-78
2022/10/27 09:57:18;;;;;;;12.45;6.18;;;26.20;86.70;;;;;;5036201;28;20025;-79
2022/10/27 10:00:00;;;;;;;13.15;10.23;;;26.00;86.30;;;;;;5036457;28;20108;-79
2022/10/27 10:02:30;;;;;;;9.05;5.03;;;25.90;86.90;;;;;;5018772;28;20384;-79
2022/10/27 10:04:57;;;;;;;10.77;5.53;;;25.70;85.40;;;;;;5018179;28;20021;-79
2022/10/27 10:07:38;;;;;;;12.98;3.95;;;25.80;86.20;;;;;;5036601;28;20365;-79
2022/10/27 10:10:10;;;;;;;11.95;4.68;;;25.70;85.10;;;;;;5018334;28;20033;-78
2022/10/27 10:12:35;;;;;;;8.25;2.80;;;25.90;85.40;;;;;;5018256;28;20029;-78
2022/10/27 10:15:10;;;;;;;6.53;2.70;;;25.80;82.50;;;;;;5036156;28;20021;-78
2022/10/27 10:17:40;;;;;;;7.97;2.70;;;25.80;84.20;;;;;;5017868;28;20025;-78
2022/10/27 10:20:07;;;;;;;5.80;2.15;;;25.80;84.00;;;;;;5018450;28;20028;-78
2022/10/27 10:22:34;;;;;;;5.82;1.73;;;26.30;83.60;;;;;;5018003;28;20029;-78
2022/10/27 10:25:23;;;;;;;6.20;1.83;;;26.50;79.70;;;;;;5035460;28;20461;-78
2022/10/27 10:28:00;;;;;;;5.25;2.08;;;26.30;80.70;;;;;;5018454;28;20075;-78
2022/10/27 10:30:26;;;;;;;9.55;2.22;;;26.40;80.30;;;;;;5035949;28;20030;-78
2022/10/27 10:32:54;;;;;;;6.03;1.80;;;26.80;79.20;;;;;;5018033;28;20037;-78
2022/10/27 10:35:46;;;;;;;6.43;2.08;;;27.00;78.70;;;;;;5017953;28;20057;-78
2022/10/27 10:38:28;;;;;;;6.80;1.40;;;27.40;77.20;;;;;;5035582;28;20381;-78
2022/10/27 10:41:20;;;;;;;8.10;3.63;;;27.60;75.50;;;;;;5018259;28;20052;-78
2022/10/27 10:43:45;;;;;;;10.98;5.90;;;27.40;73.50;;;;;;5018005;28;20033;-78
2022/10/27 10:46:23;;;;;;;11.02;6.30;;;27.40;73.20;;;;;;5035760;28;20041;-78
2022/10/27 10:48:57;;;;;;;13.55;8.18;;;27.80;72.90;;;;;;5035454;28;20030;-78
2022/10/27 10:51:34;;;;;;;10.48;7.63;;;27.80;70.00;;;;;;5017631;28;20036;-78
2022/10/27 10:54:14;;;;;;;16.48;7.95;;;27.60;70.20;;;;;;5017504;28;20026;-78
2022/10/27 10:56:41;;;;;;;15.02;8.23;;;27.70;70.60;;;;;;5035080;28;20026;-78
2022/10/27 10:59:11;;;;;;;15.00;8.57;;;28.30;68.60;;;;;;5035367;28;20075;-78
2022/10/27 11:01:54;;;;;;;16.65;8.38;;;27.70;68.70;;;;;;5035166;28;20029;-78
2022/10/27 11:04:24;;;;;;;12.70;7.70;;;28.00;68.50;;;;;;5035315;28;20026;-78
2022/10/27 11:07:06;;;;;;;10.10;7.70;;;28.30;67.50;;;;;;5035006;28;20071;-78
2022/10/27 11:10:01;;;;;;;17.23;7.80;;;28.60;66.70;;;;;;5017275;28;20141;-78
2022/10/27 11:12:35;;;;;;;16.73;8.75;;;28.40;66.60;;;;;;4986930;28;20037;-78
2022/10/27 11:15:18;;;;;;;15.75;9.15;;;28.50;65.80;;;;;;5016664;28;20067;-77
2022/10/27 11:17:47;;;;;;;12.52;8.18;;;28.30;65.50;;;;;;5034287;28;20382;-77
2022/10/27 11:20:24;;;;;;;12.20;8.50;;;28.60;65.80;;;;;;5034802;28;20026;-77
2022/10/27 11:22:51;;;;;;;15.73;8.75;;;28.60;64.40;;;;;;5016678;28;20045;-77
2022/10/27 11:25:21;;;;;;;12.73;8.77;;;28.00;66.20;;;;;;5034645;28;20025;-77
2022/10/27 11:28:10;;;;;;;15.57;9.27;;;28.70;65.50;;;;;;5016852;28;20100;-78
2022/10/27 11:30:42;;;;;;;12.82;8.38;;;29.00;64.00;;;;;;5034358;28;20485;-77
2022/10/27 11:33:26;;;;;;;15.70;8.48;;;28.70;63.10;;;;;;5034420;28;20097;-77
2022/10/27 11:36:06;;;;;;;13.07;8.27;;;28.50;63.80;;;;;;5033948;28;20025;-77
2022/10/27 11:38:53;;;;;;;12.73;8.02;;;28.60;64.10;;;;;;5016806;28;20381;-77
2022/10/27 11:41:35;;;;;;;12.25;7.82;;;28.90;63.10;;;;;;5016647;28;20075;-78
2022/10/27 11:44:15;;;;;;;14.30;8.45;;;28.60;63.00;;;;;;5016751;28;20458;-78
2022/10/27 11:46:48;;;;;;;11.75;7.50;;;29.00;62.70;;;;;;5016571;28;20064;-77
2022/10/27 11:49:42;;;;;;;10.25;7.95;;;28.80;62.30;;;;;;5034423;28;20541;-77
2022/10/27 11:52:14;;;;;;;10.73;7.80;;;28.70;62.70;;;;;;4986205;28;20088;-77
2022/10/27 11:54:40;;;;;;;12.20;7.97;;;28.70;62.60;;;;;;5034157;28;20075;-77
2022/10/27 11:57:29;;;;;;;11.77;7.25;;;28.90;61.50;;;;;;5033741;28;20420;-77
2022/10/27 12:00:10;;;;;;;14.23;7.38;;;28.70;62.10;;;;;;5034170;28;20026;-77
2022/10/27 12:02:54;;;;;;;20.95;8.55;;;28.20;62.70;;;;;;5034381;28;20503;-77
2022/10/27 12:05:38;;;;;;;14.30;7.75;;;27.60;63.70;;;;;;5034025;28;20036;-77
2022/10/27 12:08:16;;;;;;;13.57;8.20;;;27.70;63.90;;;;;;5016134;28;20029;-77
2022/10/27 12:11:23;;;;;;;12.38;7.75;;;27.40;64.60;;;;;;5034316;28;20100;-77
2022/10/27 12:13:54;;;;;;;15.77;8.48;;;26.60;66.50;;;;;;5033957;28;20044;-77
2022/10/27 12:16:30;;;;;;;13.57;7.80;;;26.30;67.40;;;;;;5016083;28;20029;-77
2022/10/27 12:19:20;;;;;;;16.75;8.30;;;26.00;68.30;;;;;;5033679;28;20504;-77
2022/10/27 12:21:50;;;;;;;13.77;8.30;;;25.90;68.40;;;;;;4999377;28;20624;-78
2022/10/27 12:24:26;;;;;;;12.30;7.68;;;26.10;68.80;;;;;;5032373;28;20053;-77
2022/10/27 12:27:06;;;;;;;15.10;8.02;;;26.30;68.60;;;;;;5033848;28;20084;-78
2022/10/27 12:29:38;;;;;;;16.40;8.38;;;26.40;68.00;;;;;;5034189;28;20026;-77
2022/10/27 12:32:33;;;;;;;13.05;8.30;;;26.00;68.30;;;;;;5015883;28;20040;-78
2022/10/27 12:35:38;;;;;;;16.55;8.65;;;25.70;69.40;;;;;;5007466;28;20139;-77
2022/10/27 12:38:12;;;;;;;21.75;8.80;;;25.70;69.70;;;;;;4992203;28;20474;-77
2022/10/27 12:40:57;;;;;;;13.82;8.88;;;25.80;70.00;;;;;;5015906;28;20123;-78
2022/10/27 12:43:42;;;;;;;18.55;8.95;;;25.80;69.70;;;;;;5015924;28;20021;-78
2022/10/27 12:46:28;;;;;;;12.52;8.27;;;25.90;69.50;;;;;;5016565;28;20022;-78
2022/10/27 12:48:57;;;;;;;18.00;8.27;;;25.40;69.90;;;;;;5037287;28;20481;-77
2022/10/27 12:51:33;;;;;;;12.80;8.18;;;25.10;71.00;;;;;;5019537;28;20444;-77
2022/10/27 12:54:22;;;;;;;15.48;8.40;;;24.90;71.30;;;;;;5037442;28;20117;-77
2022/10/27 12:57:25;;;;;;;11.38;7.18;;;24.80;72.80;;;;;;5037591;28;20466;-78
2022/10/27 13:00:04;;;;;;;12.07;7.93;;;24.90;72.50;;;;;;4960837;28;20038;-78
2022/10/27 13:02:50;;;;;;;;;;;24.40;73.90;;;;;;5030540;28;20021;-78
2022/10/27 13:05:52;;;;;;;13.95;7.38;;;24.00;75.10;;;;;;5017449;28;19909;-77